sensor_id;sensor_type;location;lat;lon;timestamp;pressure;altitude;pressure_sealevel;temperature;humidity
60433;BME280;46286;48.098;11.590;2022-07-23T00:00:51;95572.50;;;22.44;73.88
60433;BME280;46286;48.098;11.590;2022-07-23T00:03:17;95563.16;;;22.38;74.17
60433;BME280;46286;48.098;11.590;2022-07-23T00:05:42;95569.22;;;22.35;74.08
60433;BME280;46286;48.098;11.590;2022-07-23T00:08:08;95562.28;;;22.34;74.46
60433;BME280;46286;48.098;11.590;2022-07-23T00:10:34;95562.19;;;22.30;74.47
60433;BME280;46286;48.098;11.590;2022-07-23T00:12:59;95559.75;;;22.25;76.62
60433;BME280;46286;48.098;11.590;2022-07-23T00:15:25;95549.59;;;22.18;76.44
60433;BME280;46286;48.098;11.590;2022-07-23T00:17:50;95553.22;;;22.10;77.38
60433;BME280;46286;48.098;11.590;2022-07-23T00:20:16;95555.72;;;22.03;77.75
60433;BME280;46286;48.098;11.590;2022-07-23T00:22:53;95548.38;;;22.00;78.86
60433;BME280;46286;48.098;11.590;2022-07-23T00:25:20;95567.59;;;21.89;77.84
60433;BME280;46286;48.098;11.590;2022-07-23T00:27:46;95558.00;;;21.88;77.18
60433;BME280;46286;48.098;11.590;2022-07-23T00:30:12;95564.25;;;21.92;77.10
60433;BME280;46286;48.098;11.590;2022-07-23T00:32:47;95570.97;;;21.86;75.91
60433;BME280;46286;48.098;11.590;2022-07-23T00:35:13;95564.50;;;21.87;75.17
60433;BME280;46286;48.098;11.590;2022-07-23T00:37:39;95549.63;;;21.90;74.21
60433;BME280;46286;48.098;11.590;2022-07-23T00:40:05;95547.31;;;21.88;73.61
60433;BME280;46286;48.098;11.590;2022-07-23T00:42:31;95556.66;;;21.94;73.21
60433;BME280;46286;48.098;11.590;2022-07-23T00:44:57;95560.97;;;21.99;73.33
60433;BME280;46286;48.098;11.590;2022-07-23T00:47:22;95575.16;;;22.00;72.22
60433;BME280;46286;48.098;11.590;2022-07-23T00:49:48;95583.63;;;22.02;72.44
60433;BME280;46286;48.098;11.590;2022-07-23T00:52:13;95589.19;;;22.09;72.69
60433;BME280;46286;48.098;11.590;2022-07-23T00:54:39;95595.13;;;22.02;73.52
60433;BME280;46286;48.098;11.590;2022-07-23T00:57:04;95602.16;;;22.07;74.30
60433;BME280;46286;48.098;11.590;2022-07-23T00:59:30;95590.56;;;22.03;74.95
60433;BME280;46286;48.098;11.590;2022-07-23T01:01:56;95605.94;;;22.06;75.04
60433;BME280;46286;48.098;11.590;2022-07-23T01:04:21;95620.03;;;22.03;75.03
60433;BME280;46286;48.098;11.590;2022-07-23T01:06:47;95624.94;;;22.01;75.09
60433;BME280;46286;48.098;11.590;2022-07-23T01:09:12;95631.19;;;22.05;74.66
60433;BME280;46286;48.098;11.590;2022-07-23T01:11:38;95655.28;;;22.05;74.51
60433;BME280;46286;48.098;11.590;2022-07-23T01:14:17;95679.19;;;22.10;73.71
60433;BME280;46286;48.098;11.590;2022-07-23T01:16:44;95690.09;;;22.17;73.37
60433;BME280;46286;48.098;11.590;2022-07-23T01:19:10;95699.88;;;22.25;73.12
60433;BME280;46286;48.098;11.590;2022-07-23T01:21:38;95718.84;;;22.45;72.30
60433;BME280;46286;48.098;11.590;2022-07-23T01:24:04;95737.59;;;22.57;72.30
60433;BME280;46286;48.098;11.590;2022-07-23T01:26:30;95740.28;;;22.57;68.97
60433;BME280;46286;48.098;11.590;2022-07-23T01:28:55;95763.34;;;22.46;66.50
60433;BME280;46286;48.098;11.590;2022-07-23T01:31:21;95796.97;;;22.19;64.23
60433;BME280;46286;48.098;11.590;2022-07-23T01:33:47;95773.22;;;21.68;64.45
60433;BME280;46286;48.098;11.590;2022-07-23T01:36:13;95776.94;;;21.42;65.40
60433;BME280;46286;48.098;11.590;2022-07-23T01:38:39;95744.50;;;21.31;64.86
60433;BME280;46286;48.098;11.590;2022-07-23T01:41:04;95712.91;;;21.24;63.29
60433;BME280;46286;48.098;11.590;2022-07-23T01:43:30;95713.13;;;21.07;65.04
60433;BME280;46286;48.098;11.590;2022-07-23T01:45:55;95739.28;;;20.89;67.33
60433;BME280;46286;48.098;11.590;2022-07-23T01:48:21;95749.06;;;20.64;70.04
60433;BME280;46286;48.098;11.590;2022-07-23T01:50:47;95730.53;;;20.58;71.38
60433;BME280;46286;48.098;11.590;2022-07-23T01:53:13;95738.88;;;20.57;72.07
60433;BME280;46286;48.098;11.590;2022-07-23T01:55:39;95729.66;;;20.54;72.89
60433;BME280;46286;48.098;11.590;2022-07-23T01:58:05;95727.16;;;20.49;74.54
60433;BME280;46286;48.098;11.590;2022-07-23T02:00:31;95707.03;;;20.52;75.56
60433;BME280;46286;48.098;11.590;2022-07-23T02:02:56;95698.38;;;20.34;76.82
60433;BME280;46286;48.098;11.590;2022-07-23T02:05:24;95707.88;;;20.22;78.16
60433;BME280;46286;48.098;11.590;2022-07-23T02:07:50;95699.69;;;20.28;77.60
60433;BME280;46286;48.098;11.590;2022-07-23T02:10:15;95705.94;;;20.32;77.69
60433;BME280;46286;48.098;11.590;2022-07-23T02:12:41;95717.72;;;20.31;80.80
60433;BME280;46286;48.098;11.590;2022-07-23T02:15:06;95716.56;;;20.19;83.28
60433;BME280;46286;48.098;11.590;2022-07-23T02:17:32;95715.59;;;20.03;85.45
60433;BME280;46286;48.098;11.590;2022-07-23T02:19:58;95695.50;;;19.97;85.60
60433;BME280;46286;48.098;11.590;2022-07-23T02:22:23;95682.34;;;19.92;86.47
60433;BME280;46286;48.098;11.590;2022-07-23T02:24:49;95686.13;;;19.90;86.77
60433;BME280;46286;48.098;11.590;2022-07-23T02:27:14;95666.13;;;19.97;84.92
60433;BME280;46286;48.098;11.590;2022-07-23T02:29:40;95662.56;;;19.93;83.05
60433;BME280;46286;48.098;11.590;2022-07-23T02:32:05;95661.63;;;19.88;84.90
60433;BME280;46286;48.098;11.590;2022-07-23T02:34:31;95648.91;;;19.85;86.18
60433;BME280;46286;48.098;11.590;2022-07-23T02:36:56;95649.13;;;19.80;87.84
60433;BME280;46286;48.098;11.590;2022-07-23T02:39:22;95639.72;;;19.74;89.43
60433;BME280;46286;48.098;11.590;2022-07-23T02:41:47;95640.94;;;19.77;87.45
60433;BME280;46286;48.098;11.590;2022-07-23T02:44:12;95646.44;;;19.80;86.51
60433;BME280;46286;48.098;11.590;2022-07-23T02:46:38;95653.50;;;19.76;89.50
60433;BME280;46286;48.098;11.590;2022-07-23T02:49:03;95652.75;;;19.76;91.00
60433;BME280;46286;48.098;11.590;2022-07-23T02:51:30;95686.75;;;19.58;93.36
60433;BME280;46286;48.098;11.590;2022-07-23T02:53:56;95734.25;;;19.73;90.67
60433;BME280;46286;48.098;11.590;2022-07-23T02:56:21;95766.84;;;19.58;91.40
60433;BME280;46286;48.098;11.590;2022-07-23T02:58:47;95765.25;;;19.27;100.00
60433;BME280;46286;48.098;11.590;2022-07-23T03:01:13;95751.19;;;18.82;100.00
60433;BME280;46286;48.098;11.590;2022-07-23T03:03:38;95757.78;;;18.41;100.00
60433;BME280;46286;48.098;11.590;2022-07-23T03:06:04;95771.88;;;18.33;100.00
60433;BME280;46286;48.098;11.590;2022-07-23T03:08:29;95786.75;;;18.08;100.00
60433;BME280;46286;48.098;11.590;2022-07-23T03:10:55;95768.84;;;17.91;100.00
60433;BME280;46286;48.098;11.590;2022-07-23T03:13:20;95759.22;;;17.72;100.00
60433;BME280;46286;48.098;11.590;2022-07-23T03:15:46;95758.31;;;17.86;100.00
60433;BME280;46286;48.098;11.590;2022-07-23T03:18:12;95751.09;;;17.77;100.00
60433;BME280;46286;48.098;11.590;2022-07-23T03:20:37;95756.41;;;17.77;100.00
60433;BME280;46286;48.098;11.590;2022-07-23T03:23:03;95758.88;;;17.65;100.00
60433;BME280;46286;48.098;11.590;2022-07-23T03:25:28;95756.97;;;17.57;100.00
60433;BME280;46286;48.098;11.590;2022-07-23T03:27:53;95759.16;;;17.55;100.00
60433;BME280;46286;48.098;11.590;2022-07-23T03:30:19;95753.50;;;17.47;100.00
60433;BME280;46286;48.098;11.590;2022-07-23T03:32:45;95738.16;;;17.44;100.00
60433;BME280;46286;48.098;11.590;2022-07-23T03:35:10;95725.94;;;17.43;100.00
60433;BME280;46286;48.098;11.590;2022-07-23T03:37:36;95718.59;;;17.49;100.00
60433;BME280;46286;48.098;11.590;2022-07-23T03:40:02;95701.53;;;17.41;100.00
60433;BME280;46286;48.098;11.590;2022-07-23T03:42:27;95678.34;;;17.33;100.00
60433;BME280;46286;48.098;11.590;2022-07-23T03:44:53;95649.22;;;17.28;100.00
60433;BME280;46286;48.098;11.590;2022-07-23T03:47:18;95605.72;;;17.24;100.00
60433;BME280;46286;48.098;11.590;2022-07-23T03:49:47;95580.22;;;17.23;100.00
60433;BME280;46286;48.098;11.590;2022-07-23T03:52:12;95582.88;;;17.23;100.00
60433;BME280;46286;48.098;11.590;2022-07-23T03:54:38;95594.47;;;17.27;100.00
60433;BME280;46286;48.098;11.590;2022-07-23T03:57:03;95623.91;;;17.39;100.00
60433;BME280;46286;48.098;11.590;2022-07-23T03:59:29;95638.75;;;17.31;100.00
60433;BME280;46286;48.098;11.590;2022-07-23T04:01:55;95658.00;;;17.37;100.00
60433;BME280;46286;48.098;11.590;2022-07-23T04:04:20;95654.88;;;17.35;100.00
60433;BME280;46286;48.098;11.590;2022-07-23T04:06:46;95650.34;;;17.36;100.00
60433;BME280;46286;48.098;11.590;2022-07-23T04:09:11;95644.38;;;17.30;100.00
60433;BME280;46286;48.098;11.590;2022-07-23T04:11:37;95641.25;;;17.37;100.00
60433;BME280;46286;48.098;11.590;2022-07-23T04:14:03;95643.94;;;17.45;100.00
60433;BME280;46286;48.098;11.590;2022-07-23T04:16:28;95639.22;;;17.42;100.00
60433;BME280;46286;48.098;11.590;2022-07-23T04:18:54;95641.56;;;17.35;100.00
60433;BME280;46286;48.098;11.590;2022-07-23T04:21:19;95636.44;;;17.47;100.00
60433;BME280;46286;48.098;11.590;2022-07-23T04:23:45;95640.19;;;17.46;100.00
60433;BME280;46286;48.098;11.590;2022-07-23T04:26:11;95630.16;;;17.43;100.00
60433;BME280;46286;48.098;11.590;2022-07-23T04:28:36;95615.78;;;17.44;100.00
60433;BME280;46286;48.098;11.590;2022-07-23T04:31:01;95605.13;;;17.44;100.00
60433;BME280;46286;48.098;11.590;2022-07-23T04:33:27;95606.69;;;17.45;100.00
60433;BME280;46286;48.098;11.590;2022-07-23T04:35:52;95603.56;;;17.43;100.00
60433;BME280;46286;48.098;11.590;2022-07-23T04:38:18;95617.94;;;17.42;100.00
60433;BME280;46286;48.098;11.590;2022-07-23T04:40:43;95622.97;;;17.53;100.00
60433;BME280;46286;48.098;11.590;2022-07-23T04:43:09;95628.03;;;17.63;100.00
60433;BME280;46286;48.098;11.590;2022-07-23T04:45:34;95632.22;;;17.64;100.00
60433;BME280;46286;48.098;11.590;2022-07-23T04:48:00;95624.09;;;17.60;100.00
60433;BME280;46286;48.098;11.590;2022-07-23T04:50:26;95624.72;;;17.66;100.00
60433;BME280;46286;48.098;11.590;2022-07-23T04:52:52;95627.22;;;17.71;100.00
60433;BME280;46286;48.098;11.590;2022-07-23T04:55:17;95619.72;;;17.73;100.00
60433;BME280;46286;48.098;11.590;2022-07-23T04:57:43;95613.00;;;17.67;100.00
60433;BME280;46286;48.098;11.590;2022-07-23T05:00:10;95606.25;;;17.70;100.00
60433;BME280;46286;48.098;11.590;2022-07-23T05:02:36;95616.91;;;17.78;100.00
60433;BME280;46286;48.098;11.590;2022-07-23T05:05:01;95603.75;;;17.82;100.00
60433;BME280;46286;48.098;11.590;2022-07-23T05:07:27;95608.31;;;17.81;100.00
60433;BME280;46286;48.098;11.590;2022-07-23T05:09:52;95600.78;;;17.83;100.00
60433;BME280;46286;48.098;11.590;2022-07-23T05:12:17;95600.16;;;17.87;100.00
60433;BME280;46286;48.098;11.590;2022-07-23T05:14:43;95607.06;;;17.88;100.00
60433;BME280;46286;48.098;11.590;2022-07-23T05:17:08;95608.13;;;17.78;100.00
60433;BME280;46286;48.098;11.590;2022-07-23T05:19:35;95602.69;;;17.92;100.00
60433;BME280;46286;48.098;11.590;2022-07-23T05:22:01;95607.38;;;17.95;100.00
60433;BME280;46286;48.098;11.590;2022-07-23T05:24:26;95609.88;;;18.00;100.00
60433;BME280;46286;48.098;11.590;2022-07-23T05:26:52;95617.56;;;18.02;100.00
60433;BME280;46286;48.098;11.590;2022-07-23T05:29:17;95615.84;;;17.97;100.00
60433;BME280;46286;48.098;11.590;2022-07-23T05:31:43;95617.41;;;17.98;100.00
60433;BME280;46286;48.098;11.590;2022-07-23T05:34:08;95616.47;;;17.94;100.00
60433;BME280;46286;48.098;11.590;2022-07-23T05:36:34;95617.72;;;18.05;100.00
60433;BME280;46286;48.098;11.590;2022-07-23T05:38:59;95619.13;;;18.03;100.00
60433;BME280;46286;48.098;11.590;2022-07-23T05:41:25;95620.69;;;18.04;100.00
60433;BME280;46286;48.098;11.590;2022-07-23T05:43:50;95622.09;;;18.01;100.00
60433;BME280;46286;48.098;11.590;2022-07-23T05:46:16;95625.38;;;18.07;100.00
60433;BME280;46286;48.098;11.590;2022-07-23T05:48:41;95629.63;;;18.16;100.00
60433;BME280;46286;48.098;11.590;2022-07-23T05:51:08;95641.34;;;18.24;100.00
60433;BME280;46286;48.098;11.590;2022-07-23T05:53:34;95644.66;;;18.12;100.00
60433;BME280;46286;48.098;11.590;2022-07-23T05:56:00;95650.94;;;18.16;100.00
60433;BME280;46286;48.098;11.590;2022-07-23T05:58:26;95651.53;;;18.31;100.00
60433;BME280;46286;48.098;11.590;2022-07-23T06:00:51;95657.94;;;18.47;100.00
60433;BME280;46286;48.098;11.590;2022-07-23T06:03:17;95667.19;;;18.41;100.00
60433;BME280;46286;48.098;11.590;2022-07-23T06:05:43;95671.25;;;18.47;100.00
60433;BME280;46286;48.098;11.590;2022-07-23T06:08:08;95674.09;;;18.42;100.00
60433;BME280;46286;48.098;11.590;2022-07-23T06:10:34;95680.81;;;18.48;100.00
60433;BME280;46286;48.098;11.590;2022-07-23T06:12:59;95676.59;;;18.47;100.00
60433;BME280;46286;48.098;11.590;2022-07-23T06:15:25;95665.63;;;18.40;100.00
60433;BME280;46286;48.098;11.590;2022-07-23T06:17:50;95652.16;;;18.37;100.00
60433;BME280;46286;48.098;11.590;2022-07-23T06:20:16;95652.28;;;18.40;100.00
60433;BME280;46286;48.098;11.590;2022-07-23T06:22:41;95636.19;;;18.28;100.00
60433;BME280;46286;48.098;11.590;2022-07-23T06:25:07;95618.94;;;18.34;100.00
60433;BME280;46286;48.098;11.590;2022-07-23T06:27:33;95609.38;;;18.24;100.00
60433;BME280;46286;48.098;11.590;2022-07-23T06:29:58;95603.94;;;18.21;100.00
60433;BME280;46286;48.098;11.590;2022-07-23T06:32:24;95623.78;;;18.41;100.00
60433;BME280;46286;48.098;11.590;2022-07-23T06:34:49;95644.94;;;18.37;100.00
60433;BME280;46286;48.098;11.590;2022-07-23T06:37:15;95642.59;;;18.35;100.00
60433;BME280;46286;48.098;11.590;2022-07-23T06:39:42;95645.44;;;18.30;100.00
60433;BME280;46286;48.098;11.590;2022-07-23T06:42:07;95646.19;;;18.40;100.00
60433;BME280;46286;48.098;11.590;2022-07-23T06:44:32;95668.47;;;18.35;100.00
60433;BME280;46286;48.098;11.590;2022-07-23T06:46:58;95662.03;;;18.27;100.00
60433;BME280;46286;48.098;11.590;2022-07-23T06:49:23;95671.28;;;18.30;100.00
60433;BME280;46286;48.098;11.590;2022-07-23T06:51:49;95662.03;;;18.36;100.00
60433;BME280;46286;48.098;11.590;2022-07-23T06:54:14;95674.09;;;18.42;100.00
60433;BME280;46286;48.098;11.590;2022-07-23T06:56:40;95680.19;;;18.51;100.00
60433;BME280;46286;48.098;11.590;2022-07-23T06:59:05;95685.81;;;18.59;100.00
60433;BME280;46286;48.098;11.590;2022-07-23T07:01:31;95686.44;;;18.64;100.00
60433;BME280;46286;48.098;11.590;2022-07-23T07:03:57;95692.22;;;18.75;100.00
60433;BME280;46286;48.098;11.590;2022-07-23T07:06:22;95684.38;;;18.87;100.00
60433;BME280;46286;48.098;11.590;2022-07-23T07:08:48;95680.16;;;18.86;100.00
60433;BME280;46286;48.098;11.590;2022-07-23T07:11:13;95672.25;;;18.99;100.00
60433;BME280;46286;48.098;11.590;2022-07-23T07:13:39;95672.38;;;19.11;100.00
60433;BME280;46286;48.098;11.590;2022-07-23T07:16:04;95678.00;;;19.18;100.00
60433;BME280;46286;48.098;11.590;2022-07-23T07:18:30;95672.19;;;19.25;100.00
60433;BME280;46286;48.098;11.590;2022-07-23T07:20:57;95680.28;;;19.37;100.00
60433;BME280;46286;48.098;11.590;2022-07-23T07:23:23;95680.91;;;19.34;100.00
60433;BME280;46286;48.098;11.590;2022-07-23T07:25:48;95680.38;;;19.50;100.00
60433;BME280;46286;48.098;11.590;2022-07-23T07:28:14;95681.91;;;19.60;100.00
60433;BME280;46286;48.098;11.590;2022-07-23T07:30:39;95675.63;;;19.55;100.00
60433;BME280;46286;48.098;11.590;2022-07-23T07:33:05;95683.06;;;19.71;100.00
60433;BME280;46286;48.098;11.590;2022-07-23T07:35:30;95697.25;;;19.63;100.00
60433;BME280;46286;48.098;11.590;2022-07-23T07:37:58;95706.38;;;19.62;100.00
60433;BME280;46286;48.098;11.590;2022-07-23T07:40:24;95707.03;;;19.59;100.00
60433;BME280;46286;48.098;11.590;2022-07-23T07:42:51;95711.44;;;19.54;100.00
60433;BME280;46286;48.098;11.590;2022-07-23T07:45:20;95701.56;;;19.46;100.00
60433;BME280;46286;48.098;11.590;2022-07-23T07:47:46;95704.44;;;19.41;100.00
60433;BME280;46286;48.098;11.590;2022-07-23T07:50:11;95708.66;;;19.42;100.00
60433;BME280;46286;48.098;11.590;2022-07-23T07:52:37;95711.81;;;19.44;100.00
60433;BME280;46286;48.098;11.590;2022-07-23T07:55:04;95720.91;;;19.43;100.00
60433;BME280;46286;48.098;11.590;2022-07-23T07:57:30;95715.56;;;19.43;100.00
60433;BME280;46286;48.098;11.590;2022-07-23T07:59:55;95712.72;;;19.48;100.00
60433;BME280;46286;48.098;11.590;2022-07-23T08:02:20;95715.28;;;19.36;100.00
60433;BME280;46286;48.098;11.590;2022-07-23T08:04:46;95709.47;;;19.43;100.00
60433;BME280;46286;48.098;11.590;2022-07-23T08:07:11;95711.81;;;19.44;100.00
60433;BME280;46286;48.098;11.590;2022-07-23T08:09:37;95709.59;;;19.46;100.00
60433;BME280;46286;48.098;11.590;2022-07-23T08:12:02;95712.06;;;19.51;100.00
60433;BME280;46286;48.098;11.590;2022-07-23T08:14:28;95707.28;;;19.66;100.00
60433;BME280;46286;48.098;11.590;2022-07-23T08:16:53;95700.66;;;19.72;100.00
60433;BME280;46286;48.098;11.590;2022-07-23T08:19:19;95710.63;;;19.93;100.00
60433;BME280;46286;48.098;11.590;2022-07-23T08:21:44;95713.88;;;19.98;100.00
60433;BME280;46286;48.098;11.590;2022-07-23T08:24:10;95722.56;;;20.16;100.00
60433;BME280;46286;48.098;11.590;2022-07-23T08:26:35;95715.44;;;20.20;100.00
60433;BME280;46286;48.098;11.590;2022-07-23T08:29:01;95737.75;;;20.24;100.00
60433;BME280;46286;48.098;11.590;2022-07-23T08:31:26;95733.44;;;20.32;100.00
60433;BME280;46286;48.098;11.590;2022-07-23T08:33:52;95727.84;;;20.25;100.00
60433;BME280;46286;48.098;11.590;2022-07-23T08:36:17;95731.41;;;20.29;100.00
60433;BME280;46286;48.098;11.590;2022-07-23T08:38:43;95724.44;;;20.37;100.00
60433;BME280;46286;48.098;11.590;2022-07-23T08:41:09;95726.44;;;20.40;100.00
60433;BME280;46286;48.098;11.590;2022-07-23T08:43:34;95720.25;;;20.48;100.00
60433;BME280;46286;48.098;11.590;2022-07-23T08:46:01;95722.75;;;20.53;100.00
60433;BME280;46286;48.098;11.590;2022-07-23T08:48:33;95726.44;;;20.61;100.00
60433;BME280;46286;48.098;11.590;2022-07-23T08:51:01;95721.56;;;20.63;100.00
60433;BME280;46286;48.098;11.590;2022-07-23T08:53:28;95722.59;;;20.71;100.00
60433;BME280;46286;48.098;11.590;2022-07-23T08:55:56;95735.00;;;20.54;100.00
60433;BME280;46286;48.098;11.590;2022-07-23T08:58:23;95733.03;;;20.64;100.00
60433;BME280;46286;48.098;11.590;2022-07-23T09:00:49;95738.38;;;20.64;100.00
60433;BME280;46286;48.098;11.590;2022-07-23T09:03:21;95737.47;;;20.59;100.00
60433;BME280;46286;48.098;11.590;2022-07-23T09:05:47;95743.47;;;20.56;100.00
60433;BME280;46286;48.098;11.590;2022-07-23T09:08:19;95746.56;;;20.58;100.00
60433;BME280;46286;48.098;11.590;2022-07-23T09:11:01;95753.50;;;20.59;100.00
60433;BME280;46286;48.098;11.590;2022-07-23T09:13:47;95746.22;;;20.69;100.00
60433;BME280;46286;48.098;11.590;2022-07-23T09:16:26;95750.00;;;20.68;100.00
60433;BME280;46286;48.098;11.590;2022-07-23T09:18:58;95759.88;;;20.88;100.00
60433;BME280;46286;48.098;11.590;2022-07-23T09:21:25;95758.56;;;20.94;100.00
60433;BME280;46286;48.098;11.590;2022-07-23T09:26:32;95769.44;;;21.10;100.00
60433;BME280;46286;48.098;11.590;2022-07-23T09:31:51;95763.34;;;21.47;100.00
60433;BME280;46286;48.098;11.590;2022-07-23T09:34:22;95762.50;;;21.68;97.60
60433;BME280;46286;48.098;11.590;2022-07-23T09:36:49;95771.19;;;22.02;92.09
60433;BME280;46286;48.098;11.590;2022-07-23T09:39:16;95768.03;;;22.37;89.83
60433;BME280;46286;48.098;11.590;2022-07-23T09:41:48;95774.34;;;22.57;87.72
60433;BME280;46286;48.098;11.590;2022-07-23T09:44:20;95768.81;;;22.78;86.02
60433;BME280;46286;48.098;11.590;2022-07-23T09:46:50;95761.09;;;22.76;86.97
60433;BME280;46286;48.098;11.590;2022-07-23T09:49:18;95764.50;;;22.89;87.05
60433;BME280;46286;48.098;11.590;2022-07-23T09:51:55;95757.66;;;23.20;83.76
60433;BME280;46286;48.098;11.590;2022-07-23T09:54:29;95757.53;;;23.45;82.11
60433;BME280;46286;48.098;11.590;2022-07-23T09:56:57;95763.25;;;23.59;82.19
60433;BME280;46286;48.098;11.590;2022-07-23T09:59:33;95761.75;;;23.94;76.47
60433;BME280;46286;48.098;11.590;2022-07-23T10:02:00;95762.03;;;24.24;78.30
60433;BME280;46286;48.098;11.590;2022-07-23T10:04:28;95754.41;;;24.46;72.79
60433;BME280;46286;48.098;11.590;2022-07-23T10:06:56;95756.00;;;24.66;73.40
60433;BME280;46286;48.098;11.590;2022-07-23T10:09:30;95742.38;;;24.59;72.46
60433;BME280;46286;48.098;11.590;2022-07-23T10:12:03;95750.03;;;24.96;72.11
60433;BME280;46286;48.098;11.590;2022-07-23T10:14:49;95740.22;;;25.07;72.80
60433;BME280;46286;48.098;11.590;2022-07-23T10:17:16;95733.28;;;25.06;69.05
60433;BME280;46286;48.098;11.590;2022-07-23T10:19:42;95730.53;;;25.26;69.26
60433;BME280;46286;48.098;11.590;2022-07-23T10:22:11;95721.22;;;25.20;64.83
60433;BME280;46286;48.098;11.590;2022-07-23T10:30:41;95713.66;;;25.29;62.68
60433;BME280;46286;48.098;11.590;2022-07-23T10:41:00;95712.06;;;25.48;61.19
60433;BME280;46286;48.098;11.590;2022-07-23T10:43:26;95712.38;;;25.42;62.01
60433;BME280;46286;48.098;11.590;2022-07-23T10:45:53;95713.19;;;25.47;61.34
60433;BME280;46286;48.098;11.590;2022-07-23T10:48:23;95715.38;;;25.37;63.41
60433;BME280;46286;48.098;11.590;2022-07-23T10:51:20;95719.91;;;25.33;60.77
60433;BME280;46286;48.098;11.590;2022-07-23T10:59:22;95713.09;;;25.39;60.04
60433;BME280;46286;48.098;11.590;2022-07-23T11:01:47;95722.47;;;25.49;58.00
60433;BME280;46286;48.098;11.590;2022-07-23T11:04:13;95732.94;;;25.31;59.24
60433;BME280;46286;48.098;11.590;2022-07-23T11:09:42;95728.47;;;24.96;60.63
60433;BME280;46286;48.098;11.590;2022-07-23T11:15:07;95712.22;;;24.89;60.97
60433;BME280;46286;48.098;11.590;2022-07-23T11:17:36;95702.75;;;24.76;62.05
60433;BME280;46286;48.098;11.590;2022-07-23T11:25:08;95710.81;;;24.76;62.69
60433;BME280;46286;48.098;11.590;2022-07-23T11:30:04;95707.19;;;24.68;62.80
60433;BME280;46286;48.098;11.590;2022-07-23T11:32:34;95713.75;;;24.51;64.25
60433;BME280;46286;48.098;11.590;2022-07-23T11:35:03;95712.38;;;24.57;63.87
60433;BME280;46286;48.098;11.590;2022-07-23T11:39:57;95712.84;;;24.43;63.97
60433;BME280;46286;48.098;11.590;2022-07-23T11:42:23;95713.34;;;24.29;63.82
60433;BME280;46286;48.098;11.590;2022-07-23T11:44:50;95715.72;;;24.15;64.06
60433;BME280;46286;48.098;11.590;2022-07-23T11:47:22;95719.97;;;24.16;65.16
60433;BME280;46286;48.098;11.590;2022-07-23T11:49:58;95715.31;;;24.13;64.36
60433;BME280;46286;48.098;11.590;2022-07-23T11:52:27;95717.66;;;24.14;65.03
60433;BME280;46286;48.098;11.590;2022-07-23T11:54:54;95716.72;;;24.07;65.19
60433;BME280;46286;48.098;11.590;2022-07-23T11:57:24;95707.50;;;24.08;65.38
60433;BME280;46286;48.098;11.590;2022-07-23T11:59:53;95721.25;;;24.02;65.70
60433;BME280;46286;48.098;11.590;2022-07-23T12:02:20;95711.88;;;23.96;66.71
60433;BME280;46286;48.098;11.590;2022-07-23T12:04:49;95717.78;;;23.86;67.32
60433;BME280;46286;48.098;11.590;2022-07-23T12:12:41;95709.13;;;23.77;66.84
60433;BME280;46286;48.098;11.590;2022-07-23T12:15:09;95707.41;;;23.68;68.13
60433;BME280;46286;48.098;11.590;2022-07-23T12:17:37;95706.72;;;23.72;69.49
60433;BME280;46286;48.098;11.590;2022-07-23T12:20:07;95706.16;;;23.82;67.65
60433;BME280;46286;48.098;11.590;2022-07-23T12:22:40;95701.50;;;23.79;69.02
60433;BME280;46286;48.098;11.590;2022-07-23T12:25:09;95694.72;;;23.85;67.91
60433;BME280;46286;48.098;11.590;2022-07-23T12:27:35;95699.94;;;23.78;70.08
60433;BME280;46286;48.098;11.590;2022-07-23T12:30:18;95704.63;;;23.81;67.78
60433;BME280;46286;48.098;11.590;2022-07-23T12:32:45;95702.34;;;23.83;69.39
60433;BME280;46286;48.098;11.590;2022-07-23T12:35:11;95702.78;;;23.85;67.88
60433;BME280;46286;48.098;11.590;2022-07-23T12:37:39;95703.66;;;23.89;67.81
60433;BME280;46286;48.098;11.590;2022-07-23T12:40:30;95703.91;;;23.84;67.72
60433;BME280;46286;48.098;11.590;2022-07-23T12:43:06;95701.06;;;23.77;68.71
60433;BME280;46286;48.098;11.590;2022-07-23T12:45:49;95699.78;;;23.70;68.13
60433;BME280;46286;48.098;11.590;2022-07-23T12:51:04;95705.84;;;23.67;68.04
60433;BME280;46286;48.098;11.590;2022-07-23T12:53:44;95708.47;;;23.48;68.89
60433;BME280;46286;48.098;11.590;2022-07-23T12:56:12;95699.63;;;23.31;68.43
60433;BME280;46286;48.098;11.590;2022-07-23T13:04:02;95708.63;;;23.87;67.22
60433;BME280;46286;48.098;11.590;2022-07-23T13:06:31;95704.88;;;23.92;67.29
60433;BME280;46286;48.098;11.590;2022-07-23T13:08:57;95707.50;;;24.08;66.39
60433;BME280;46286;48.098;11.590;2022-07-23T13:11:22;95715.19;;;24.25;66.55
60433;BME280;46286;48.098;11.590;2022-07-23T13:13:49;95709.31;;;24.19;66.18
60433;BME280;46286;48.098;11.590;2022-07-23T13:16:14;95715.09;;;24.21;65.80
60433;BME280;46286;48.098;11.590;2022-07-23T13:18:40;95722.25;;;24.14;66.05
60433;BME280;46286;48.098;11.590;2022-07-23T13:21:05;95711.91;;;24.16;66.28
60433;BME280;46286;48.098;11.590;2022-07-23T13:23:31;95717.28;;;24.16;66.45
60433;BME280;46286;48.098;11.590;2022-07-23T13:25:56;95718.09;;;24.00;67.95
60433;BME280;46286;48.098;11.590;2022-07-23T13:28:22;95712.88;;;24.08;67.92
60433;BME280;46286;48.098;11.590;2022-07-23T13:30:49;95711.19;;;23.99;68.30
60433;BME280;46286;48.098;11.590;2022-07-23T13:33:16;95710.06;;;23.84;68.39
60433;BME280;46286;48.098;11.590;2022-07-23T13:35:42;95710.00;;;23.81;68.76
60433;BME280;46286;48.098;11.590;2022-07-23T13:38:08;95708.28;;;23.73;68.81